Time;durP1;ratioP1;P1;durP2;ratioP2;P2;SDS_P1;SDS_P2;PMS_P1;PMS_P2;Temp;Humidity;BMP_temperature;BMP_pressure;BME280_temperature;BME280_humidity;BME280_pressure;Samples;Min_cycle;Max_cycle;Signal;HPM_P1;HPM_P2
2021/12/13 00:01:23;;;;;;;0.00;0.00;;;6.10;83.70;;;;;;3932660;30;20088;-59
2021/12/13 00:04:04;;;;;;;0.00;0.00;;;5.90;84.20;;;;;;3945185;30;20422;-60
2021/12/13 00:06:37;;;;;;;0.00;0.00;;;5.80;84.60;;;;;;3932647;30;20122;-59
2021/12/13 00:09:07;;;;;;;0.00;0.00;;;5.80;85.00;;;;;;3932814;30;20441;-59
2021/12/13 00:11:33;;;;;;;0.00;0.00;;;5.80;85.40;;;;;;3932480;30;20134;-59
2021/12/13 00:14:01;;;;;;;0.00;0.00;;;5.80;85.60;;;;;;3932279;30;20056;-59
2021/12/13 00:16:33;;;;;;;0.00;0.00;;;5.80;85.70;;;;;;3932807;30;20048;-59
2021/12/13 00:19:01;;;;;;;0.00;0.00;;;5.80;85.60;;;;;;3932664;30;20135;-60
2021/12/13 00:21:31;;;;;;;0.00;0.00;;;5.80;85.80;;;;;;3932256;30;20052;-59
2021/12/13 00:24:02;;;;;;;0.00;0.00;;;5.90;85.80;;;;;;3932083;30;20056;-59
2021/12/13 00:26:32;;;;;;;0.00;0.00;;;5.90;85.80;;;;;;3932095;30;20146;-59
2021/12/13 00:28:56;;;;;;;0.00;0.00;;;6.00;85.70;;;;;;3932412;30;20060;-59
2021/12/13 00:31:57;;;;;;;0.00;0.00;;;5.90;85.80;;;;;;3932331;30;20048;-59
2021/12/13 00:34:41;;;;;;;0.00;0.00;;;5.90;86.10;;;;;;3931853;30;20052;-59
2021/12/13 00:37:11;;;;;;;0.00;0.00;;;5.80;86.20;;;;;;3932472;30;20510;-58
2021/12/13 00:39:50;;;;;;;0.00;0.00;;;5.80;86.30;;;;;;3944688;30;20083;-59
2021/12/13 00:42:15;;;;;;;0.00;0.00;;;5.80;86.50;;;;;;3931793;30;20048;-59
2021/12/13 00:44:47;;;;;;;0.00;0.00;;;5.70;86.70;;;;;;3932209;30;20052;-59
2021/12/13 00:47:27;;;;;;;0.00;0.00;;;5.80;86.80;;;;;;3932268;30;20059;-60
2021/12/13 00:50:14;;;;;;;0.00;0.00;;;5.90;86.80;;;;;;3931882;30;20130;-59
2021/12/13 00:52:38;;;;;;;0.00;0.00;;;5.90;86.50;;;;;;3932078;30;20087;-60
2021/12/13 00:55:02;;;;;;;0.00;0.00;;;5.90;86.60;;;;;;3932152;30;20060;-59
2021/12/13 00:57:31;;;;;;;0.00;0.00;;;5.80;87.20;;;;;;3932165;30;20144;-60
2021/12/13 01:00:08;;;;;;;0.00;0.00;;;5.80;87.30;;;;;;3931874;30;20063;-60
2021/12/13 01:02:48;;;;;;;0.00;0.00;;;5.80;87.30;;;;;;3932112;30;20064;-60
2021/12/13 01:05:36;;;;;;;0.00;0.00;;;5.80;87.50;;;;;;3919840;30;20084;-60
2021/12/13 01:08:51;;;;;;;0.00;0.00;;;5.90;87.30;;;;;;3944911;30;20062;-61
2021/12/13 01:11:20;;;;;;;0.00;0.00;;;6.00;86.80;;;;;;3930752;30;20151;-60
2021/12/13 01:14:03;;;;;;;0.00;0.00;;;6.10;86.60;;;;;;3930690;30;20071;-60
2021/12/13 01:17:03;;;;;;;0.00;0.00;;;6.10;86.60;;;;;;3930423;30;20159;-60
2021/12/13 01:19:58;;;;;;;0.00;0.00;;;6.20;86.60;;;;;;3916138;30;20148;-60
2021/12/13 01:25:59;;;;;;;0.00;0.00;;;6.10;86.30;;;;;;3916171;30;20064;-60
2021/12/13 01:28:27;;;;;;;0.00;0.00;;;6.10;86.40;;;;;;3927862;30;20048;-59
2021/12/13 01:31:07;;;;;;;0.00;0.00;;;6.10;86.50;;;;;;3915829;30;20076;-60
2021/12/13 01:33:32;;;;;;;0.00;0.00;;;6.10;86.70;;;;;;3915949;30;20428;-60
2021/12/13 01:36:00;;;;;;;0.00;0.00;;;6.00;87.00;;;;;;3915490;30;20068;-60
2021/12/13 01:38:33;;;;;;;0.00;0.00;;;6.00;87.00;;;;;;3916126;30;20045;-60
2021/12/13 01:40:55;;;;;;;0.00;0.00;;;6.00;87.10;;;;;;3915806;30;20140;-60
2021/12/13 01:43:25;;;;;;;0.00;0.00;;;5.90;87.30;;;;;;3915827;30;20177;-60
2021/12/13 01:45:49;;;;;;;0.00;0.00;;;5.90;87.10;;;;;;3907900;30;20136;-60
2021/12/13 01:48:19;;;;;;;0.00;0.00;;;5.90;87.00;;;;;;3872661;30;20113;-60
2021/12/13 01:50:49;;;;;;;0.00;0.00;;;5.90;87.00;;;;;;3884775;30;20062;-60
2021/12/13 01:53:11;;;;;;;0.00;0.00;;;5.90;86.80;;;;;;3860896;30;20536;-59
2021/12/13 01:55:38;;;;;;;0.00;0.00;;;5.90;86.90;;;;;;3921779;30;20131;-59
2021/12/13 02:01:11;;;;;;;0.00;0.00;;;5.70;86.80;;;;;;3930286;30;20467;-59
2021/12/13 02:04:05;;;;;;;0.00;0.00;;;5.70;86.80;;;;;;3931247;30;20063;-60
2021/12/13 02:06:44;;;;;;;0.00;0.00;;;5.60;87.10;;;;;;3929771;30;20130;-60
2021/12/13 02:09:17;;;;;;;0.00;0.00;;;5.60;87.30;;;;;;3930215;30;20418;-60
2021/12/13 02:11:43;;;;;;;0.00;0.00;;;5.60;87.40;;;;;;3929887;30;20052;-59
2021/12/13 02:14:14;;;;;;;0.00;0.00;;;5.50;87.40;;;;;;3929892;30;20163;-60
2021/12/13 02:17:00;;;;;;;0.00;0.00;;;5.50;87.30;;;;;;3917819;30;20479;-59
2021/12/13 02:19:31;;;;;;;0.00;0.00;;;5.50;87.30;;;;;;3930293;30;20056;-60
2021/12/13 02:22:02;;;;;;;;;;;5.50;87.30;;;;;;3929974;30;20047;-59
2021/12/13 02:24:27;;;;;;;0.00;0.00;;;5.50;87.30;;;;;;3930226;30;19933;-60
2021/12/13 02:26:49;;;;;;;0.00;0.00;;;5.50;87.40;;;;;;3930266;30;20950;-60
2021/12/13 02:29:35;;;;;;;0.00;0.00;;;5.40;87.80;;;;;;3930124;30;20041;-60
2021/12/13 02:32:01;;;;;;;0.00;0.00;;;5.40;88.10;;;;;;3929359;30;20064;-60
2021/12/13 02:34:29;;;;;;;0.00;0.00;;;5.50;88.00;;;;;;3930108;30;20665;-60
2021/12/13 02:36:54;;;;;;;0.00;0.00;;;5.60;87.80;;;;;;3930217;30;20056;-60
2021/12/13 02:39:22;;;;;;;0.00;0.00;;;5.60;87.80;;;;;;3929948;30;20159;-60
2021/12/13 02:41:45;;;;;;;0.00;0.00;;;5.60;87.80;;;;;;3929713;30;20109;-59
2021/12/13 02:44:16;;;;;;;0.00;0.00;;;5.70;87.70;;;;;;3929738;30;20807;-59
2021/12/13 02:46:39;;;;;;;0.00;0.00;;;5.70;87.90;;;;;;3931212;30;20052;-60
2021/12/13 02:49:07;;;;;;;0.00;0.00;;;5.70;88.00;;;;;;3932497;30;20143;-60
2021/12/13 02:51:47;;;;;;;0.00;0.00;;;5.70;88.00;;;;;;3933861;30;20056;-60
2021/12/13 02:54:21;;;;;;;0.00;0.00;;;5.80;88.10;;;;;;3945882;30;20173;-60
2021/12/13 02:56:51;;;;;;;0.00;0.00;;;5.80;88.10;;;;;;3933791;30;20082;-60
2021/12/13 02:59:15;;;;;;;0.00;0.00;;;5.80;88.20;;;;;;3933815;30;20143;-60
2021/12/13 03:01:41;;;;;;;0.00;0.00;;;5.80;88.20;;;;;;3933549;30;20080;-61
2021/12/13 03:04:09;;;;;;;0.00;0.00;;;5.90;88.20;;;;;;3924854;30;20126;-60
2021/12/13 03:06:38;;;;;;;0.00;0.00;;;5.90;88.00;;;;;;3933921;30;20147;-59
2021/12/13 03:09:12;;;;;;;0.00;0.00;;;5.90;88.00;;;;;;3933685;30;20055;-60
2021/12/13 03:11:35;;;;;;;0.00;0.00;;;6.00;88.00;;;;;;3933365;30;20048;-60
2021/12/13 03:14:07;;;;;;;0.00;0.00;;;6.00;87.90;;;;;;3933202;30;20091;-60
2021/12/13 03:16:51;;;;;;;0.00;0.00;;;6.00;88.00;;;;;;3946138;30;20502;-60
2021/12/13 03:19:42;;;;;;;0.00;0.00;;;5.90;88.10;;;;;;3933423;30;20048;-59
2021/12/13 03:22:19;;;;;;;0.00;0.00;;;5.80;88.50;;;;;;3932946;30;20052;-60
2021/12/13 03:25:08;;;;;;;0.00;0.00;;;5.80;88.50;;;;;;3933263;30;20133;-60
2021/12/13 03:28:00;;;;;;;0.00;0.00;;;5.80;88.80;;;;;;3933299;30;20092;-61
2021/12/13 03:30:26;;;;;;;0.00;0.00;;;5.70;88.90;;;;;;3932999;30;20109;-60
2021/12/13 03:33:13;;;;;;;0.00;0.00;;;5.70;89.20;;;;;;3933415;30;20056;-60
2021/12/13 03:35:49;;;;;;;0.00;0.00;;;5.70;89.50;;;;;;3930875;30;20094;-60
2021/12/13 03:38:17;;;;;;;0.00;0.00;;;5.80;89.10;;;;;;3930589;30;20071;-61
2021/12/13 03:40:40;;;;;;;0.00;0.00;;;5.80;89.10;;;;;;3930824;30;20059;-60
2021/12/13 03:43:16;;;;;;;0.00;0.00;;;5.80;89.00;;;;;;3930926;30;20067;-60
2021/12/13 03:45:45;;;;;;;0.00;0.00;;;5.70;89.30;;;;;;3930756;30;20060;-60
2021/12/13 03:48:11;;;;;;;0.00;0.00;;;5.60;89.70;;;;;;3930443;30;20056;-60
2021/12/13 03:50:38;;;;;;;0.00;0.00;;;5.60;89.90;;;;;;3930756;30;20063;-59
2021/12/13 03:53:07;;;;;;;0.00;0.00;;;5.70;89.80;;;;;;3930718;30;20123;-60
2021/12/13 03:55:33;;;;;;;0.00;0.00;;;5.80;89.60;;;;;;3930932;30;20102;-60
2021/12/13 03:58:00;;;;;;;0.00;0.00;;;5.70;89.80;;;;;;3930165;30;20143;-60
2021/12/13 04:00:27;;;;;;;0.00;0.00;;;5.60;90.00;;;;;;3929863;30;20044;-60
2021/12/13 04:02:53;;;;;;;0.00;0.00;;;5.70;89.70;;;;;;3930652;30;20112;-60
2021/12/13 04:05:20;;;;;;;0.00;0.00;;;5.70;89.50;;;;;;3930541;30;20052;-60
2021/12/13 04:07:55;;;;;;;0.00;0.00;;;5.80;89.40;;;;;;3930631;30;20124;-60
2021/12/13 04:10:21;;;;;;;0.00;0.00;;;5.80;89.30;;;;;;3930218;30;20139;-60
2021/12/13 04:12:50;;;;;;;0.00;0.00;;;5.70;89.90;;;;;;3930473;30;20083;-59
2021/12/13 04:15:32;;;;;;;0.00;0.00;;;5.70;89.80;;;;;;3930559;30;20056;-60
2021/12/13 04:20:27;;;;;;;0.00;0.00;;;5.80;89.30;;;;;;3930396;30;20207;-60
2021/12/13 04:22:54;;;;;;;0.00;0.00;;;5.80;89.10;;;;;;3930238;30;20056;-60
2021/12/13 04:25:24;;;;;;;0.00;0.00;;;5.70;89.00;;;;;;3930133;30;20135;-60
2021/12/13 04:28:03;;;;;;;0.00;0.00;;;5.60;89.30;;;;;;3926047;30;20056;-60
2021/12/13 04:30:41;;;;;;;0.00;0.00;;;5.70;89.40;;;;;;3930415;30;20127;-60
2021/12/13 04:33:19;;;;;;;0.00;0.00;;;5.60;89.60;;;;;;3942678;30;20067;-60
2021/12/13 04:35:43;;;;;;;0.00;0.00;;;5.60;89.70;;;;;;3930102;30;20113;-60
2021/12/13 04:38:07;;;;;;;0.00;0.00;;;5.60;89.40;;;;;;3929836;30;20063;-59
2021/12/13 04:40:34;;;;;;;0.00;0.00;;;5.60;89.60;;;;;;3929780;30;20534;-60
2021/12/13 04:43:04;;;;;;;0.00;0.00;;;5.60;89.60;;;;;;3930245;30;20091;-60
2021/12/13 04:45:29;;;;;;;0.00;0.00;;;5.60;89.70;;;;;;3930062;30;20052;-59
2021/12/13 04:48:07;;;;;;;0.00;0.00;;;5.50;89.70;;;;;;3905423;30;20517;-59
2021/12/13 04:50:54;;;;;;;0.00;0.00;;;5.50;90.00;;;;;;3929659;30;20491;-58
2021/12/13 04:53:24;;;;;;;0.00;0.00;;;5.50;90.10;;;;;;3929824;30;20393;-58
2021/12/13 04:55:48;;;;;;;0.00;0.00;;;5.50;90.10;;;;;;3929847;30;20096;-58
2021/12/13 04:58:13;;;;;;;0.00;0.00;;;5.40;90.30;;;;;;3929313;30;20060;-58
2021/12/13 05:00:41;;;;;;;0.00;0.00;;;5.40;90.30;;;;;;3929555;30;20059;-58
2021/12/13 05:03:07;;;;;;;0.00;0.00;;;5.50;90.20;;;;;;3929736;30;20051;-59
2021/12/13 05:05:35;;;;;;;0.00;0.00;;;5.40;90.30;;;;;;3929468;30;20105;-59
2021/12/13 05:07:58;;;;;;;0.00;0.00;;;5.40;90.30;;;;;;3929365;30;20056;-59
2021/12/13 05:10:25;;;;;;;0.00;0.00;;;5.40;90.40;;;;;;3929694;30;20044;-59
2021/12/13 05:13:22;;;;;;;0.00;0.00;;;5.40;90.40;;;;;;3911638;30;20461;-59
2021/12/13 05:15:56;;;;;;;0.00;0.00;;;5.50;90.20;;;;;;3929027;30;20056;-59
2021/12/13 05:18:23;;;;;;;0.00;0.00;;;5.50;90.30;;;;;;3929158;30;20067;-59
2021/12/13 05:20:49;;;;;;;0.00;0.00;;;5.50;90.40;;;;;;3929126;30;20135;-59
2021/12/13 05:23:19;;;;;;;0.00;0.00;;;5.50;90.30;;;;;;3929495;30;20067;-59
2021/12/13 05:25:44;;;;;;;0.00;0.00;;;5.50;90.40;;;;;;3929208;30;20539;-59
2021/12/13 05:28:19;;;;;;;0.00;0.00;;;5.50;90.30;;;;;;3928967;30;20095;-60
2021/12/13 05:30:43;;;;;;;0.00;0.00;;;5.60;90.30;;;;;;3929274;30;20131;-57
2021/12/13 05:33:09;;;;;;;0.00;0.00;;;5.60;90.30;;;;;;3929603;30;20052;-59
2021/12/13 05:35:49;;;;;;;0.00;0.00;;;5.50;90.30;;;;;;3929264;30;20416;-59
2021/12/13 05:38:24;;;;;;;0.00;0.00;;;5.50;90.20;;;;;;3929091;30;20056;-59
2021/12/13 05:40:47;;;;;;;0.00;0.00;;;5.50;90.30;;;;;;3929188;30;20125;-59
2021/12/13 05:43:25;;;;;;;0.00;0.00;;;5.50;90.30;;;;;;3929285;30;20052;-59
2021/12/13 05:45:58;;;;;;;0.00;0.00;;;5.50;90.20;;;;;;3928907;30;20420;-59
2021/12/13 05:48:43;;;;;;;0.00;0.00;;;5.50;90.10;;;;;;3929266;30;20052;-59
2021/12/13 05:51:19;;;;;;;0.00;0.00;;;5.60;90.10;;;;;;3916774;30;20118;-59
2021/12/13 05:53:47;;;;;;;0.00;0.00;;;5.60;90.10;;;;;;3929227;30;20147;-60
2021/12/13 05:56:13;;;;;;;0.00;0.00;;;5.50;90.40;;;;;;3928776;30;20134;-60
2021/12/13 05:58:44;;;;;;;0.00;0.00;;;5.50;90.20;;;;;;3929149;30;20060;-60
2021/12/13 06:01:41;;;;;;;0.00;0.00;;;5.40;90.10;;;;;;3928831;30;20060;-60
2021/12/13 06:04:07;;;;;;;0.00;0.00;;;5.40;90.20;;;;;;3928766;30;20052;-60
2021/12/13 06:06:41;;;;;;;0.00;0.00;;;5.30;90.30;;;;;;3929009;30;20063;-59
2021/12/13 06:09:04;;;;;;;0.00;0.00;;;5.10;90.40;;;;;;3929093;30;20155;-59
2021/12/13 06:11:33;;;;;;;0.00;0.00;;;5.10;90.30;;;;;;3928742;30;20062;-59
2021/12/13 06:14:27;;;;;;;0.00;0.00;;;5.00;90.40;;;;;;3928411;30;20059;-60
2021/12/13 06:17:06;;;;;;;0.00;0.00;;;4.90;90.70;;;;;;3886935;30;20950;-59
2021/12/13 06:19:41;;;;;;;0.00;0.00;;;4.90;90.50;;;;;;3886911;30;20152;-60
2021/12/13 06:22:12;;;;;;;0.00;0.00;;;4.90;90.50;;;;;;3886465;30;20057;-59
2021/12/13 06:24:40;;;;;;;0.00;0.00;;;4.90;90.60;;;;;;3886465;30;20068;-59
2021/12/13 06:27:23;;;;;;;0.00;0.00;;;4.90;90.50;;;;;;3878456;30;20151;-58
2021/12/13 06:29:46;;;;;;;0.00;0.00;;;4.80;90.70;;;;;;3886478;30;20132;-59
2021/12/13 06:32:28;;;;;;;0.00;0.00;;;4.90;90.60;;;;;;3886828;30;20128;-59
2021/12/13 06:34:52;;;;;;;0.00;0.00;;;4.80;90.60;;;;;;3886830;30;20441;-59
2021/12/13 06:37:23;;;;;;;0.00;0.00;;;4.80;90.70;;;;;;3886829;30;20053;-59
2021/12/13 06:39:46;;;;;;;;;;;4.80;90.80;;;;;;3886309;30;20127;-59
2021/12/13 06:42:08;;;;;;;0.00;0.00;;;4.80;90.80;;;;;;3886390;30;19928;-59
2021/12/13 06:44:44;;;;;;;0.00;0.00;;;4.70;90.80;;;;;;3886864;30;20628;-59
2021/12/13 06:47:20;;;;;;;0.00;0.00;;;4.80;90.90;;;;;;3886569;30;20136;-58
2021/12/13 06:50:02;;;;;;;0.00;0.00;;;4.70;90.90;;;;;;3886845;30;20084;-59
2021/12/13 06:52:32;;;;;;;0.00;0.00;;;4.80;91.00;;;;;;3890290;30;20093;-58
2021/12/13 06:55:12;;;;;;;0.00;0.00;;;4.80;90.90;;;;;;3928823;30;20118;-59
2021/12/13 06:57:39;;;;;;;0.00;0.00;;;4.80;90.90;;;;;;3922764;30;20048;-59
2021/12/13 07:00:20;;;;;;;0.00;0.00;;;4.90;90.90;;;;;;3928273;30;20056;-58
2021/12/13 07:02:49;;;;;;;;;;;5.00;90.90;;;;;;3929049;30;20060;-58
2021/12/13 07:05:29;;;;;;;0.00;0.00;;;4.90;91.10;;;;;;3928599;30;19988;-58
2021/12/13 07:08:02;;;;;;;0.00;0.00;;;5.00;91.00;;;;;;3928441;30;20052;-58
2021/12/13 07:10:57;;;;;;;0.00;0.00;;;5.10;90.80;;;;;;3922505;30;20461;-54
2021/12/13 07:13:19;;;;;;;0.00;0.00;;;5.20;90.70;;;;;;3928584;30;20064;-57
2021/12/13 07:15:49;;;;;;;0.00;0.00;;;5.20;90.90;;;;;;3928588;30;20504;-57
2021/12/13 07:18:14;;;;;;;0.00;0.00;;;5.30;90.80;;;;;;3928212;30;20669;-58
2021/12/13 07:20:59;;;;;;;0.00;0.00;;;5.30;90.80;;;;;;3916388;30;20087;-57
2021/12/13 07:23:21;;;;;;;0.00;0.00;;;5.30;90.90;;;;;;3914891;30;20055;-57
2021/12/13 07:25:46;;;;;;;0.00;0.00;;;5.30;90.90;;;;;;3916296;30;20076;-58
2021/12/13 07:28:10;;;;;;;0.00;0.00;;;5.40;90.90;;;;;;3928074;30;20048;-58
2021/12/13 07:30:35;;;;;;;0.00;0.00;;;5.40;90.80;;;;;;3928416;30;20088;-58
2021/12/13 07:33:03;;;;;;;0.00;0.00;;;5.40;90.90;;;;;;3928446;30;20052;-58
2021/12/13 07:35:40;;;;;;;0.00;0.00;;;5.50;90.90;;;;;;3930121;30;20068;-59
2021/12/13 07:38:09;;;;;;;0.00;0.00;;;5.50;90.80;;;;;;3918462;30;20091;-60
2021/12/13 07:40:49;;;;;;;0.00;0.00;;;5.40;91.00;;;;;;3930772;30;20135;-59
2021/12/13 07:43:22;;;;;;;0.00;0.00;;;5.40;91.10;;;;;;3931038;30;20143;-58
2021/12/13 07:46:00;;;;;;;0.00;0.00;;;5.50;91.00;;;;;;3930895;30;20052;-58
2021/12/13 07:48:24;;;;;;;0.00;0.00;;;5.50;90.90;;;;;;3930574;30;20113;-59
2021/12/13 07:51:01;;;;;;;0.00;0.00;;;5.40;91.00;;;;;;3930667;30;20655;-59
2021/12/13 07:53:26;;;;;;;0.00;0.00;;;5.40;91.10;;;;;;3930871;30;20075;-60
2021/12/13 07:55:49;;;;;;;0.00;0.00;;;5.50;91.20;;;;;;3930834;30;20114;-59
2021/12/13 07:58:17;;;;;;;0.00;0.00;;;5.50;91.10;;;;;;3930855;30;20066;-59
2021/12/13 08:00:41;;;;;;;0.00;0.00;;;5.60;91.10;;;;;;3930687;30;20062;-59
2021/12/13 08:03:11;;;;;;;0.00;0.00;;;5.50;91.10;;;;;;3930721;30;20421;-59
2021/12/13 08:05:46;;;;;;;0.00;0.00;;;5.60;91.00;;;;;;3918748;30;20059;-59
2021/12/13 08:08:19;;;;;;;0.00;0.00;;;5.70;90.90;;;;;;3919314;30;20062;-59
2021/12/13 08:10:43;;;;;;;0.00;0.00;;;5.70;90.80;;;;;;3930517;30;20052;-59
2021/12/13 08:13:08;;;;;;;0.00;0.00;;;5.70;90.80;;;;;;3930650;30;20499;-59
2021/12/13 08:15:41;;;;;;;0.00;0.00;;;5.70;90.80;;;;;;3930654;30;20490;-60
2021/12/13 08:18:28;;;;;;;0.00;0.00;;;5.70;90.90;;;;;;3930151;30;20557;-63
2021/12/13 08:20:58;;;;;;;0.00;0.00;;;5.60;90.90;;;;;;3930230;30;20048;-67
2021/12/13 08:23:27;;;;;;;0.00;0.00;;;5.70;91.10;;;;;;3930385;30;20063;-64
2021/12/13 08:25:55;;;;;;;0.00;0.00;;;5.80;91.00;;;;;;3930019;30;20057;-64
2021/12/13 08:28:34;;;;;;;0.00;0.00;;;6.00;90.90;;;;;;3943057;30;20539;-63
2021/12/13 08:31:00;;;;;;;0.00;0.00;;;6.20;90.70;;;;;;3930325;30;20448;-63
2021/12/13 08:33:25;;;;;;;0.00;0.00;;;6.20;90.50;;;;;;3930443;30;20740;-64
2021/12/13 08:36:38;;;;;;;0.00;0.00;;;6.30;90.50;;;;;;3929993;30;20111;-63
2021/12/13 08:39:15;;;;;;;0.00;0.00;;;6.40;90.30;;;;;;3888153;30;20092;-63
2021/12/13 08:41:48;;;;;;;0.00;0.00;;;6.80;90.10;;;;;;3875823;30;20112;-61
2021/12/13 08:44:11;;;;;;;0.00;0.00;;;7.60;88.50;;;;;;3887776;30;20119;-63
2021/12/13 08:46:40;;;;;;;0.00;0.00;;;8.00;87.30;;;;;;3887562;30;20456;-62
2021/12/13 08:49:33;;;;;;;0.00;0.00;;;8.30;86.30;;;;;;3888067;30;20576;-63
2021/12/13 08:52:01;;;;;;;0.00;0.00;;;8.20;85.30;;;;;;3887467;30;20057;-67
2021/12/13 08:54:56;;;;;;;0.00;0.00;;;8.10;85.50;;;;;;3887819;30;20490;-63
2021/12/13 08:57:36;;;;;;;0.00;0.00;;;8.40;85.10;;;;;;3886384;30;20070;-66
2021/12/13 09:00:03;;;;;;;0.00;0.00;;;9.10;83.70;;;;;;3887518;30;20557;-67
2021/12/13 09:02:29;;;;;;;0.00;0.00;;;9.60;81.70;;;;;;3887736;30;20061;-65
2021/12/13 09:05:07;;;;;;;0.00;0.00;;;10.30;80.30;;;;;;3876051;30;20862;-63
2021/12/13 09:07:29;;;;;;;0.00;0.00;;;10.90;78.40;;;;;;3875639;30;20066;-63
2021/12/13 09:09:54;;;;;;;0.00;0.00;;;11.40;77.10;;;;;;3887483;30;20061;-64
2021/12/13 09:12:35;;;;;;;0.00;0.00;;;11.70;75.60;;;;;;3887600;30;20224;-63
2021/12/13 09:14:59;;;;;;;0.00;0.00;;;12.00;74.10;;;;;;3922802;30;20139;-61
2021/12/13 09:17:25;;;;;;;0.00;0.00;;;12.40;73.60;;;;;;3929554;30;20048;-61
2021/12/13 09:19:47;;;;;;;0.00;0.00;;;12.50;73.10;;;;;;3929298;30;20104;-62
2021/12/13 09:22:21;;;;;;;0.00;0.00;;;12.70;71.60;;;;;;3929406;30;20564;-61
2021/12/13 09:24:46;;;;;;;0.00;0.00;;;12.80;70.90;;;;;;3929694;30;20127;-62
2021/12/13 09:27:23;;;;;;;0.00;0.00;;;12.50;70.50;;;;;;3929565;30;20056;-62
2021/12/13 09:30:23;;;;;;;0.00;0.00;;;12.10;70.90;;;;;;3929613;30;20063;-62
2021/12/13 09:32:55;;;;;;;0.00;0.00;;;12.60;71.00;;;;;;3929186;30;20140;-65
2021/12/13 09:35:44;;;;;;;0.00;0.00;;;13.10;69.40;;;;;;3929342;30;20131;-62
2021/12/13 09:38:21;;;;;;;0.00;0.00;;;13.50;68.30;;;;;;3928956;30;20056;-63
2021/12/13 09:40:48;;;;;;;0.00;0.00;;;13.40;66.90;;;;;;3929342;30;20131;-62
2021/12/13 09:43:11;;;;;;;0.00;0.00;;;13.60;67.00;;;;;;3929517;30;20456;-63
2021/12/13 09:45:48;;;;;;;0.00;0.00;;;13.70;66.40;;;;;;3929390;30;20056;-63
2021/12/13 09:48:19;;;;;;;0.00;0.00;;;13.80;65.30;;;;;;3928932;30;20049;-63
2021/12/13 09:50:44;;;;;;;0.00;0.00;;;13.90;64.90;;;;;;3929284;30;20181;-61
2021/12/13 09:53:09;;;;;;;0.00;0.00;;;14.00;65.00;;;;;;3929310;30;20048;-62
2021/12/13 09:55:37;;;;;;;0.00;0.00;;;14.20;64.10;;;;;;3929376;30;20564;-61
2021/12/13 09:58:17;;;;;;;0.00;0.00;;;14.10;64.00;;;;;;3928228;30;20064;-63
2021/12/13 10:00:45;;;;;;;0.00;0.00;;;14.10;63.90;;;;;;3928960;30;20106;-62
2021/12/13 10:03:14;;;;;;;0.00;0.00;;;14.00;63.70;;;;;;3929161;30;20135;-62
2021/12/13 10:05:42;;;;;;;0.00;0.00;;;14.20;63.40;;;;;;3929142;30;20059;-64
2021/12/13 10:08:10;;;;;;;0.00;0.00;;;13.60;62.60;;;;;;3934560;30;20058;-63
2021/12/13 10:10:56;;;;;;;0.00;0.00;;;13.40;63.80;;;;;;3929000;30;20482;-61
2021/12/13 10:13:24;;;;;;;0.00;0.00;;;13.80;63.20;;;;;;3918865;30;20480;-60
2021/12/13 10:16:02;;;;;;;0.00;0.00;;;14.20;62.30;;;;;;3928575;30;20496;-64
2021/12/13 10:18:28;;;;;;;0.00;0.00;;;14.50;61.60;;;;;;3928945;30;20078;-61
2021/12/13 10:20:59;;;;;;;0.00;0.00;;;14.70;60.30;;;;;;3928910;30;20067;-61
2021/12/13 10:23:25;;;;;;;0.00;0.00;;;14.80;60.10;;;;;;3928935;30;20144;-64
2021/12/13 10:25:54;;;;;;;0.00;0.00;;;15.10;59.10;;;;;;3928726;30;20052;-61
2021/12/13 10:28:31;;;;;;;0.00;0.00;;;15.50;58.30;;;;;;3928992;30;20626;-62
2021/12/13 10:31:13;;;;;;;0.00;0.00;;;15.50;57.70;;;;;;3928813;30;20052;-61
2021/12/13 10:33:37;;;;;;;;;;;15.40;57.20;;;;;;3929360;30;20749;-62
2021/12/13 10:36:02;;;;;;;0.00;0.00;;;15.60;57.30;;;;;;3940701;30;19930;-64
2021/12/13 10:38:55;;;;;;;0.00;0.00;;;15.70;56.00;;;;;;3928924;30;20056;-65
2021/12/13 10:41:31;;;;;;;0.00;0.00;;;14.90;57.10;;;;;;3916471;30;20056;-63
2021/12/13 10:43:58;;;;;;;0.00;0.00;;;15.10;57.10;;;;;;3928474;30;20060;-63
2021/12/13 10:46:30;;;;;;;0.00;0.00;;;15.50;56.40;;;;;;3929069;30;20088;-62
2021/12/13 10:48:57;;;;;;;;;;;15.90;55.60;;;;;;3929303;30;20447;-61
2021/12/13 10:51:28;;;;;;;0.00;0.00;;;16.00;55.40;;;;;;3928648;30;19970;-62
2021/12/13 10:53:52;;;;;;;0.00;0.00;;;16.30;54.30;;;;;;3928513;30;20064;-63
2021/12/13 10:56:38;;;;;;;0.00;0.00;;;15.50;54.60;;;;;;3929033;30;20446;-62
2021/12/13 10:59:06;;;;;;;0.00;0.00;;;15.20;55.30;;;;;;3928742;30;20064;-65
2021/12/13 11:01:42;;;;;;;0.00;0.00;;;14.30;56.50;;;;;;3928480;30;20048;-64
2021/12/13 11:04:09;;;;;;;0.00;0.00;;;14.30;56.20;;;;;;3928382;30;20443;-65
2021/12/13 11:06:35;;;;;;;0.00;0.00;;;13.40;57.80;;;;;;3928593;30;20063;-63
2021/12/13 11:08:57;;;;;;;0.00;0.00;;;12.90;59.90;;;;;;3928718;30;20443;-63
2021/12/13 11:11:37;;;;;;;0.00;0.00;;;13.20;60.10;;;;;;3931253;30;20048;-63
2021/12/13 11:14:06;;;;;;;0.00;0.00;;;13.70;59.40;;;;;;3931034;30;20052;-63
2021/12/13 11:16:36;;;;;;;0.00;0.00;;;14.00;58.30;;;;;;3931479;30;20060;-63
2021/12/13 11:18:59;;;;;;;0.00;0.00;;;14.10;57.50;;;;;;3931472;30;20052;-63
2021/12/13 11:21:35;;;;;;;0.00;0.00;;;14.10;56.70;;;;;;3918990;30;20113;-67
2021/12/13 11:23:59;;;;;;;0.00;0.00;;;13.70;57.50;;;;;;3931039;30;20121;-64
2021/12/13 11:26:27;;;;;;;0.00;0.00;;;13.20;57.30;;;;;;3931404;30;20051;-63
2021/12/13 11:28:51;;;;;;;0.00;0.00;;;12.50;59.20;;;;;;3943618;30;20056;-63
2021/12/13 11:32:00;;;;;;;0.00;0.00;;;11.80;61.30;;;;;;3931072;30;20154;-63
2021/12/13 11:34:51;;;;;;;0.00;0.00;;;11.20;62.60;;;;;;3924904;30;20119;-64
2021/12/13 11:37:32;;;;;;;0.00;0.00;;;10.60;65.00;;;;;;3933310;30;20168;-64
2021/12/13 11:40:23;;;;;;;0.00;0.00;;;10.20;66.60;;;;;;3933122;30;20307;-65
2021/12/13 11:42:51;;;;;;;0.00;0.00;;;10.10;66.60;;;;;;3933338;30;20515;-66
2021/12/13 11:45:35;;;;;;;0.00;0.00;;;9.70;68.70;;;;;;3945745;30;20454;-68
2021/12/13 11:48:38;;;;;;;0.00;0.00;;;9.60;69.30;;;;;;3920514;30;20056;-62
2021/12/13 11:51:25;;;;;;;0.00;0.00;;;9.30;70.20;;;;;;3933007;30;20044;-63
2021/12/13 11:54:25;;;;;;;0.00;0.00;;;9.10;72.10;;;;;;3932847;30;20052;-62
2021/12/13 11:57:02;;;;;;;0.00;0.00;;;8.90;73.40;;;;;;3933212;30;20090;-64
2021/12/13 11:59:55;;;;;;;0.00;0.00;;;8.70;73.70;;;;;;3933151;30;20056;-63
2021/12/13 12:02:23;;;;;;;0.00;0.00;;;8.60;73.60;;;;;;3932146;30;20113;-63
2021/12/13 12:05:11;;;;;;;0.00;0.00;;;8.50;75.10;;;;;;3945612;30;20162;-66
2021/12/13 12:07:52;;;;;;;0.00;0.00;;;8.50;74.70;;;;;;3932777;30;20499;-62
2021/12/13 12:10:44;;;;;;;0.00;0.00;;;8.40;74.80;;;;;;3945015;30;20058;-67
2021/12/13 12:13:28;;;;;;;;;;;8.40;75.40;;;;;;3945370;30;20401;-63
2021/12/13 12:15:52;;;;;;;0.00;0.00;;;8.30;76.20;;;;;;3932715;30;20013;-62
2021/12/13 12:18:19;;;;;;;0.00;0.00;;;8.40;75.80;;;;;;3932921;30;20056;-63
2021/12/13 12:20:48;;;;;;;0.00;0.00;;;8.40;76.50;;;;;;3932184;30;20456;-62
2021/12/13 12:23:32;;;;;;;0.00;0.00;;;8.40;76.60;;;;;;3932823;30;20497;-63
2021/12/13 12:26:00;;;;;;;0.00;0.00;;;8.50;76.70;;;;;;3932157;30;20053;-63
2021/12/13 12:28:28;;;;;;;0.00;0.00;;;8.50;76.80;;;;;;3932692;30;20138;-63
2021/12/13 12:30:57;;;;;;;0.00;0.00;;;8.60;76.40;;;;;;3944771;30;20112;-66
2021/12/13 12:33:33;;;;;;;0.00;0.00;;;8.70;76.50;;;;;;3920458;30;20063;-63
2021/12/13 12:35:57;;;;;;;0.00;0.00;;;8.60;76.90;;;;;;3932042;30;20113;-64
2021/12/13 12:38:25;;;;;;;0.00;0.00;;;8.50;77.00;;;;;;3944948;30;20573;-63
2021/12/13 12:40:59;;;;;;;0.00;0.00;;;8.60;76.60;;;;;;3944636;30;20052;-63
2021/12/13 12:43:25;;;;;;;0.00;0.00;;;8.80;76.20;;;;;;3932560;30;20083;-63
2021/12/13 12:45:53;;;;;;;0.00;0.00;;;8.50;76.70;;;;;;3932011;30;20060;-66
2021/12/13 12:48:29;;;;;;;0.00;0.00;;;8.50;77.10;;;;;;3932358;30;20082;-63
2021/12/13 12:51:01;;;;;;;0.00;0.00;;;8.60;77.20;;;;;;3944572;30;20060;-62
2021/12/13 12:53:29;;;;;;;0.00;0.00;;;8.50;77.30;;;;;;3932377;30;20155;-62
2021/12/13 12:55:58;;;;;;;0.00;0.00;;;8.60;76.90;;;;;;3944353;30;20068;-63
2021/12/13 12:58:27;;;;;;;0.00;0.00;;;8.60;77.10;;;;;;3932548;30;20476;-62
2021/12/13 13:00:52;;;;;;;0.00;0.00;;;8.70;77.30;;;;;;3944618;30;20499;-63
2021/12/13 13:03:21;;;;;;;0.00;0.00;;;8.70;77.00;;;;;;3944636;30;20130;-63
2021/12/13 13:05:43;;;;;;;0.00;0.00;;;8.60;77.30;;;;;;3932134;30;20133;-64
2021/12/13 13:08:08;;;;;;;0.00;0.00;;;8.50;77.30;;;;;;3931790;30;23814;-63
2021/12/13 13:13:10;;;;;;;0.00;0.00;;;8.50;77.50;;;;;;3931920;30;20052;-62
2021/12/13 13:15:43;;;;;;;0.00;0.00;;;8.50;77.40;;;;;;3944441;30;20066;-63
2021/12/13 13:18:17;;;;;;;0.00;0.00;;;8.60;77.10;;;;;;3931571;30;20169;-63
2021/12/13 13:20:47;;;;;;;0.00;0.00;;;8.60;76.70;;;;;;3931570;30;20056;-63
2021/12/13 13:23:12;;;;;;;0.00;0.00;;;8.60;76.50;;;;;;3931728;30;20515;-64
2021/12/13 13:25:45;;;;;;;0.00;0.00;;;8.60;77.10;;;;;;3931584;30;20063;-64
2021/12/13 13:28:32;;;;;;;0.00;0.00;;;8.50;77.60;;;;;;3931360;30;20055;-65
2021/12/13 13:31:05;;;;;;;;;;;8.40;77.50;;;;;;3944468;30;20578;-64
2021/12/13 13:33:31;;;;;;;0.00;0.00;;;8.30;77.30;;;;;;3943930;30;19926;-63
2021/12/13 13:35:54;;;;;;;0.00;0.00;;;8.40;77.30;;;;;;3918938;30;20105;-63
2021/12/13 13:38:17;;;;;;;0.00;0.00;;;8.30;77.60;;;;;;3931613;30;20040;-64